KLCH/LCH METAR and TAF weather

Enter ICAO airport designator
Station Type Date Time Source
KLCH METAR 2021/01/17 18:53 UTC NOAA

KLCH 171853Z 27008KT 10SM CLR 17/M05 A3007 RMK AO2 SLP191 T01721050


Station Type Date Time Source
KLCH Decoded METAR 2021/01/17 18:53 UTC NOAA

LAKE CHARLES REGIONAL AIRPORT , LA, United States (KLCH) 30-12N 093-23W 3M
Jan 17, 2021 - 01:53 PM EST / 2021.01.17 1853 UTC
Wind: from the W (270 degrees) at 9 MPH (8 KT):0
Visibility: 10 mile(s):0
Sky conditions: clear
Temperature: 63.0 F (17.2 C)
Dew Point: 23.0 F (-5.0 C)
Relative Humidity: 21%
Pressure (altimeter): 30.07 in. Hg (1018 hPa)
ob: KLCH 171853Z 27008KT 10SM CLR 17/M05 A3007 RMK AO2 SLP191 T01721050
cycle: 19

Station Type Date Time Source
KLCH TAF 2021/01/17 18:24 UTC NOAA

TAF KLCH 171721Z 1718/1818 27006KT P6SM FEW200
FM180000 VRB03KT P6SM SKC

Example: see airport list